sensor_id;sensor_type;location;lat;lon;timestamp;P1;durP1;ratioP1;P2;durP2;ratioP2
57333;SDS011;43165;50.998;18.164;2022-08-19T00:01:28;10.90;;;9.70;;
57333;SDS011;43165;50.998;18.164;2022-08-19T00:03:58;11.00;;;10.10;;
57333;SDS011;43165;50.998;18.164;2022-08-19T00:06:34;10.90;;;9.90;;
57333;SDS011;43165;50.998;18.164;2022-08-19T00:09:02;11.60;;;10.30;;
57333;SDS011;43165;50.998;18.164;2022-08-19T00:11:28;11.00;;;9.90;;
57333;SDS011;43165;50.998;18.164;2022-08-19T00:13:54;11.00;;;10.10;;
57333;SDS011;43165;50.998;18.164;2022-08-19T00:16:21;18.30;;;10.10;;
57333;SDS011;43165;50.998;18.164;2022-08-19T00:18:48;11.40;;;10.30;;
57333;SDS011;43165;50.998;18.164;2022-08-19T00:21:14;13.50;;;11.20;;
57333;SDS011;43165;50.998;18.164;2022-08-19T00:23:40;11.70;;;10.30;;
57333;SDS011;43165;50.998;18.164;2022-08-19T00:26:07;12.20;;;10.80;;
57333;SDS011;43165;50.998;18.164;2022-08-19T00:28:36;13.20;;;11.10;;
57333;SDS011;43165;50.998;18.164;2022-08-19T00:31:02;13.20;;;11.20;;
57333;SDS011;43165;50.998;18.164;2022-08-19T00:33:29;16.90;;;11.70;;
57333;SDS011;43165;50.998;18.164;2022-08-19T00:36:04;11.70;;;10.80;;
57333;SDS011;43165;50.998;18.164;2022-08-19T00:38:34;12.50;;;11.30;;
57333;SDS011;43165;50.998;18.164;2022-08-19T00:41:00;12.60;;;11.40;;
57333;SDS011;43165;50.998;18.164;2022-08-19T00:43:26;12.70;;;11.00;;
57333;SDS011;43165;50.998;18.164;2022-08-19T00:46:01;12.90;;;11.70;;
57333;SDS011;43165;50.998;18.164;2022-08-19T00:48:35;15.10;;;12.00;;
57333;SDS011;43165;50.998;18.164;2022-08-19T00:51:04;12.60;;;11.60;;
57333;SDS011;43165;50.998;18.164;2022-08-19T00:53:33;14.10;;;12.70;;
57333;SDS011;43165;50.998;18.164;2022-08-19T00:55:59;13.00;;;11.80;;
57333;SDS011;43165;50.998;18.164;2022-08-19T00:58:40;14.10;;;12.70;;
57333;SDS011;43165;50.998;18.164;2022-08-19T01:01:06;13.40;;;12.20;;
57333;SDS011;43165;50.998;18.164;2022-08-19T01:03:33;13.20;;;12.00;;
57333;SDS011;43165;50.998;18.164;2022-08-19T01:05:59;14.00;;;12.60;;
57333;SDS011;43165;50.998;18.164;2022-08-19T01:08:25;14.30;;;13.00;;
57333;SDS011;43165;50.998;18.164;2022-08-19T01:10:52;15.00;;;12.70;;
57333;SDS011;43165;50.998;18.164;2022-08-19T01:13:21;14.70;;;13.40;;
57333;SDS011;43165;50.998;18.164;2022-08-19T01:15:57;15.10;;;13.20;;
57333;SDS011;43165;50.998;18.164;2022-08-19T01:18:25;14.90;;;13.50;;
57333;SDS011;43165;50.998;18.164;2022-08-19T01:20:52;14.90;;;13.50;;
57333;SDS011;43165;50.998;18.164;2022-08-19T01:23:20;16.20;;;13.40;;
57333;SDS011;43165;50.998;18.164;2022-08-19T01:25:47;15.10;;;13.70;;
57333;SDS011;43165;50.998;18.164;2022-08-19T01:28:19;15.40;;;13.20;;
57333;SDS011;43165;50.998;18.164;2022-08-19T01:30:46;15.00;;;13.60;;
57333;SDS011;43165;50.998;18.164;2022-08-19T01:33:13;15.00;;;13.50;;
57333;SDS011;43165;50.998;18.164;2022-08-19T01:35:39;15.50;;;14.10;;
57333;SDS011;43165;50.998;18.164;2022-08-19T01:38:06;15.30;;;14.00;;
57333;SDS011;43165;50.998;18.164;2022-08-19T01:40:36;15.70;;;14.30;;
57333;SDS011;43165;50.998;18.164;2022-08-19T01:43:03;16.90;;;15.30;;
57333;SDS011;43165;50.998;18.164;2022-08-19T01:45:30;14.60;;;13.50;;
57333;SDS011;43165;50.998;18.164;2022-08-19T01:47:58;16.10;;;14.80;;
57333;SDS011;43165;50.998;18.164;2022-08-19T01:50:25;16.00;;;14.40;;
57333;SDS011;43165;50.998;18.164;2022-08-19T01:52:51;16.50;;;14.90;;
57333;SDS011;43165;50.998;18.164;2022-08-19T01:55:18;16.70;;;14.70;;
57333;SDS011;43165;50.998;18.164;2022-08-19T01:57:46;16.90;;;15.20;;
57333;SDS011;43165;50.998;18.164;2022-08-19T02:00:15;17.10;;;15.50;;
57333;SDS011;43165;50.998;18.164;2022-08-19T02:02:42;17.00;;;15.60;;
57333;SDS011;43165;50.998;18.164;2022-08-19T02:05:08;17.00;;;15.50;;
57333;SDS011;43165;50.998;18.164;2022-08-19T02:07:35;18.20;;;16.10;;
57333;SDS011;43165;50.998;18.164;2022-08-19T02:10:06;17.30;;;15.70;;
57333;SDS011;43165;50.998;18.164;2022-08-19T02:12:34;17.40;;;15.90;;
57333;SDS011;43165;50.998;18.164;2022-08-19T02:15:00;18.20;;;16.60;;
57333;SDS011;43165;50.998;18.164;2022-08-19T02:17:27;18.20;;;16.40;;
57333;SDS011;43165;50.998;18.164;2022-08-19T02:19:54;19.00;;;16.20;;
57333;SDS011;43165;50.998;18.164;2022-08-19T02:22:23;19.40;;;17.30;;
57333;SDS011;43165;50.998;18.164;2022-08-19T02:24:51;19.60;;;17.60;;
57333;SDS011;43165;50.998;18.164;2022-08-19T02:27:17;19.40;;;17.30;;
57333;SDS011;43165;50.998;18.164;2022-08-19T02:29:43;19.80;;;17.70;;
57333;SDS011;43165;50.998;18.164;2022-08-19T02:32:11;20.30;;;17.70;;
57333;SDS011;43165;50.998;18.164;2022-08-19T02:34:36;21.10;;;18.20;;
57333;SDS011;43165;50.998;18.164;2022-08-19T02:37:02;20.00;;;17.90;;
57333;SDS011;43165;50.998;18.164;2022-08-19T02:39:27;19.90;;;18.10;;
57333;SDS011;43165;50.998;18.164;2022-08-19T02:41:53;21.20;;;18.30;;
57333;SDS011;43165;50.998;18.164;2022-08-19T02:44:18;19.90;;;18.00;;
57333;SDS011;43165;50.998;18.164;2022-08-19T02:46:47;20.70;;;17.70;;
57333;SDS011;43165;50.998;18.164;2022-08-19T02:49:15;21.80;;;18.70;;
57333;SDS011;43165;50.998;18.164;2022-08-19T02:51:42;23.10;;;18.60;;
57333;SDS011;43165;50.998;18.164;2022-08-19T02:54:10;20.90;;;18.80;;
57333;SDS011;43165;50.998;18.164;2022-08-19T02:56:38;24.80;;;18.90;;
57333;SDS011;43165;50.998;18.164;2022-08-19T02:59:06;20.50;;;18.30;;
57333;SDS011;43165;50.998;18.164;2022-08-19T03:01:36;21.30;;;19.30;;
57333;SDS011;43165;50.998;18.164;2022-08-19T03:04:03;20.90;;;18.90;;
57333;SDS011;43165;50.998;18.164;2022-08-19T03:06:30;20.80;;;19.00;;
57333;SDS011;43165;50.998;18.164;2022-08-19T03:08:56;25.10;;;19.30;;
57333;SDS011;43165;50.998;18.164;2022-08-19T03:11:27;20.90;;;19.10;;
57333;SDS011;43165;50.998;18.164;2022-08-19T03:13:54;21.90;;;19.80;;
57333;SDS011;43165;50.998;18.164;2022-08-19T03:16:21;24.20;;;20.20;;
57333;SDS011;43165;50.998;18.164;2022-08-19T03:18:49;21.30;;;19.20;;
57333;SDS011;43165;50.998;18.164;2022-08-19T03:21:16;23.20;;;20.00;;
57333;SDS011;43165;50.998;18.164;2022-08-19T03:23:43;22.60;;;19.90;;
57333;SDS011;43165;50.998;18.164;2022-08-19T03:26:09;26.80;;;19.80;;
57333;SDS011;43165;50.998;18.164;2022-08-19T03:28:35;22.10;;;19.90;;
57333;SDS011;43165;50.998;18.164;2022-08-19T03:31:02;26.70;;;20.20;;
57333;SDS011;43165;50.998;18.164;2022-08-19T03:33:34;22.20;;;20.00;;
57333;SDS011;43165;50.998;18.164;2022-08-19T03:36:04;26.20;;;20.50;;
57333;SDS011;43165;50.998;18.164;2022-08-19T03:38:41;23.40;;;20.90;;
57333;SDS011;43165;50.998;18.164;2022-08-19T03:41:13;23.00;;;20.70;;
57333;SDS011;43165;50.998;18.164;2022-08-19T03:43:40;25.60;;;20.30;;
57333;SDS011;43165;50.998;18.164;2022-08-19T03:46:17;25.00;;;20.00;;
57333;SDS011;43165;50.998;18.164;2022-08-19T03:48:48;23.20;;;19.80;;
57333;SDS011;43165;50.998;18.164;2022-08-19T03:51:23;21.30;;;19.40;;
57333;SDS011;43165;50.998;18.164;2022-08-19T03:53:50;22.50;;;20.20;;
57333;SDS011;43165;50.998;18.164;2022-08-19T03:56:17;23.10;;;19.80;;
57333;SDS011;43165;50.998;18.164;2022-08-19T03:58:43;24.80;;;19.60;;
57333;SDS011;43165;50.998;18.164;2022-08-19T04:01:15;24.60;;;20.60;;
57333;SDS011;43165;50.998;18.164;2022-08-19T04:03:42;23.80;;;19.80;;
57333;SDS011;43165;50.998;18.164;2022-08-19T04:06:19;27.20;;;19.90;;
57333;SDS011;43165;50.998;18.164;2022-08-19T04:08:47;24.40;;;20.10;;
57333;SDS011;43165;50.998;18.164;2022-08-19T04:11:17;22.60;;;20.40;;
57333;SDS011;43165;50.998;18.164;2022-08-19T04:13:46;24.30;;;20.70;;
57333;SDS011;43165;50.998;18.164;2022-08-19T04:16:12;22.60;;;20.20;;
57333;SDS011;43165;50.998;18.164;2022-08-19T04:18:39;22.80;;;20.70;;
57333;SDS011;43165;50.998;18.164;2022-08-19T04:21:06;24.40;;;20.50;;
57333;SDS011;43165;50.998;18.164;2022-08-19T04:23:33;22.10;;;20.10;;
57333;SDS011;43165;50.998;18.164;2022-08-19T04:26:02;24.30;;;20.60;;
57333;SDS011;43165;50.998;18.164;2022-08-19T04:28:28;28.90;;;20.30;;
57333;SDS011;43165;50.998;18.164;2022-08-19T04:30:54;28.10;;;19.30;;
57333;SDS011;43165;50.998;18.164;2022-08-19T04:33:21;23.90;;;19.00;;
57333;SDS011;43165;50.998;18.164;2022-08-19T04:35:49;29.20;;;19.10;;
57333;SDS011;43165;50.998;18.164;2022-08-19T04:38:16;21.10;;;18.20;;
57333;SDS011;43165;50.998;18.164;2022-08-19T04:40:45;20.80;;;18.30;;
57333;SDS011;43165;50.998;18.164;2022-08-19T04:43:31;23.70;;;18.80;;
57333;SDS011;43165;50.998;18.164;2022-08-19T04:45:58;26.70;;;18.60;;
57333;SDS011;43165;50.998;18.164;2022-08-19T04:48:24;26.20;;;17.20;;
57333;SDS011;43165;50.998;18.164;2022-08-19T04:50:53;28.50;;;17.50;;
57333;SDS011;43165;50.998;18.164;2022-08-19T04:53:23;23.40;;;17.40;;
57333;SDS011;43165;50.998;18.164;2022-08-19T04:55:54;19.30;;;17.20;;
57333;SDS011;43165;50.998;18.164;2022-08-19T04:58:25;25.30;;;16.30;;
57333;SDS011;43165;50.998;18.164;2022-08-19T05:00:52;21.50;;;16.20;;
57333;SDS011;43165;50.998;18.164;2022-08-19T05:03:18;18.30;;;16.20;;
57333;SDS011;43165;50.998;18.164;2022-08-19T05:05:45;18.70;;;16.20;;
57333;SDS011;43165;50.998;18.164;2022-08-19T05:08:14;17.60;;;16.00;;
57333;SDS011;43165;50.998;18.164;2022-08-19T05:10:45;17.40;;;15.30;;
57333;SDS011;43165;50.998;18.164;2022-08-19T05:13:15;19.40;;;15.10;;
57333;SDS011;43165;50.998;18.164;2022-08-19T05:15:42;16.90;;;15.10;;
57333;SDS011;43165;50.998;18.164;2022-08-19T05:18:09;16.60;;;14.90;;
57333;SDS011;43165;50.998;18.164;2022-08-19T05:20:53;19.40;;;14.30;;
57333;SDS011;43165;50.998;18.164;2022-08-19T05:23:38;18.80;;;14.80;;
57333;SDS011;43165;50.998;18.164;2022-08-19T05:26:03;16.00;;;14.50;;
57333;SDS011;43165;50.998;18.164;2022-08-19T05:28:30;16.40;;;14.00;;
57333;SDS011;43165;50.998;18.164;2022-08-19T05:30:56;14.80;;;13.30;;
57333;SDS011;43165;50.998;18.164;2022-08-19T05:33:21;17.60;;;14.00;;
57333;SDS011;43165;50.998;18.164;2022-08-19T05:35:48;19.90;;;14.20;;
57333;SDS011;43165;50.998;18.164;2022-08-19T05:38:15;16.00;;;12.90;;
57333;SDS011;43165;50.998;18.164;2022-08-19T05:40:44;15.40;;;13.20;;
57333;SDS011;43165;50.998;18.164;2022-08-19T05:43:13;15.00;;;13.60;;
57333;SDS011;43165;50.998;18.164;2022-08-19T05:45:41;15.20;;;13.70;;
57333;SDS011;43165;50.998;18.164;2022-08-19T05:48:07;14.70;;;13.20;;
57333;SDS011;43165;50.998;18.164;2022-08-19T05:50:39;17.50;;;12.70;;
57333;SDS011;43165;50.998;18.164;2022-08-19T05:53:06;14.80;;;12.30;;
57333;SDS011;43165;50.998;18.164;2022-08-19T05:55:34;15.10;;;13.50;;
57333;SDS011;43165;50.998;18.164;2022-08-19T05:57:59;13.80;;;12.50;;
57333;SDS011;43165;50.998;18.164;2022-08-19T06:00:26;20.90;;;12.70;;
57333;SDS011;43165;50.998;18.164;2022-08-19T06:02:52;17.00;;;12.70;;
57333;SDS011;43165;50.998;18.164;2022-08-19T06:05:22;13.70;;;12.30;;
57333;SDS011;43165;50.998;18.164;2022-08-19T06:07:48;13.90;;;12.70;;
57333;SDS011;43165;50.998;18.164;2022-08-19T06:10:14;13.30;;;12.10;;
57333;SDS011;43165;50.998;18.164;2022-08-19T06:12:39;13.40;;;12.20;;
57333;SDS011;43165;50.998;18.164;2022-08-19T06:15:06;13.40;;;12.00;;
57333;SDS011;43165;50.998;18.164;2022-08-19T06:17:34;12.10;;;10.80;;
57333;SDS011;43165;50.998;18.164;2022-08-19T06:20:00;12.90;;;11.80;;
57333;SDS011;43165;50.998;18.164;2022-08-19T06:22:28;11.90;;;10.90;;
57333;SDS011;43165;50.998;18.164;2022-08-19T06:24:55;16.20;;;11.50;;
57333;SDS011;43165;50.998;18.164;2022-08-19T06:27:21;16.00;;;11.20;;
57333;SDS011;43165;50.998;18.164;2022-08-19T06:29:47;12.80;;;11.10;;
57333;SDS011;43165;50.998;18.164;2022-08-19T06:32:14;16.00;;;10.90;;
57333;SDS011;43165;50.998;18.164;2022-08-19T06:34:41;18.90;;;11.20;;
57333;SDS011;43165;50.998;18.164;2022-08-19T06:37:07;14.80;;;11.00;;
57333;SDS011;43165;50.998;18.164;2022-08-19T06:39:35;11.40;;;10.10;;
57333;SDS011;43165;50.998;18.164;2022-08-19T06:42:04;14.20;;;10.90;;
57333;SDS011;43165;50.998;18.164;2022-08-19T06:44:33;13.70;;;10.50;;
57333;SDS011;43165;50.998;18.164;2022-08-19T06:47:05;17.70;;;9.90;;
57333;SDS011;43165;50.998;18.164;2022-08-19T06:49:32;17.10;;;10.40;;
57333;SDS011;43165;50.998;18.164;2022-08-19T06:51:58;17.50;;;10.30;;
57333;SDS011;43165;50.998;18.164;2022-08-19T06:54:25;13.70;;;9.70;;
57333;SDS011;43165;50.998;18.164;2022-08-19T06:56:51;16.60;;;10.50;;
57333;SDS011;43165;50.998;18.164;2022-08-19T06:59:18;18.20;;;9.60;;
57333;SDS011;43165;50.998;18.164;2022-08-19T07:01:49;16.70;;;10.00;;
57333;SDS011;43165;50.998;18.164;2022-08-19T07:04:21;14.10;;;9.10;;
57333;SDS011;43165;50.998;18.164;2022-08-19T07:06:50;16.80;;;9.30;;
57333;SDS011;43165;50.998;18.164;2022-08-19T07:09:21;13.50;;;9.10;;
57333;SDS011;43165;50.998;18.164;2022-08-19T07:11:48;31.60;;;10.10;;
57333;SDS011;43165;50.998;18.164;2022-08-19T07:14:15;14.50;;;8.90;;
57333;SDS011;43165;50.998;18.164;2022-08-19T07:16:43;14.60;;;8.70;;
57333;SDS011;43165;50.998;18.164;2022-08-19T07:19:12;18.70;;;9.40;;
57333;SDS011;43165;50.998;18.164;2022-08-19T07:21:38;14.40;;;9.40;;
57333;SDS011;43165;50.998;18.164;2022-08-19T07:24:04;13.90;;;8.30;;
57333;SDS011;43165;50.998;18.164;2022-08-19T07:26:33;15.70;;;7.40;;
57333;SDS011;43165;50.998;18.164;2022-08-19T07:29:04;10.80;;;8.00;;
57333;SDS011;43165;50.998;18.164;2022-08-19T07:31:30;16.30;;;7.80;;
57333;SDS011;43165;50.998;18.164;2022-08-19T07:33:57;15.40;;;7.30;;
57333;SDS011;43165;50.998;18.164;2022-08-19T07:36:27;8.20;;;7.30;;
57333;SDS011;43165;50.998;18.164;2022-08-19T07:38:56;12.60;;;7.60;;
57333;SDS011;43165;50.998;18.164;2022-08-19T07:41:23;17.60;;;8.20;;
57333;SDS011;43165;50.998;18.164;2022-08-19T07:43:50;14.20;;;7.50;;
57333;SDS011;43165;50.998;18.164;2022-08-19T07:46:17;11.70;;;7.00;;
57333;SDS011;43165;50.998;18.164;2022-08-19T07:48:46;16.20;;;7.60;;
57333;SDS011;43165;50.998;18.164;2022-08-19T07:51:13;13.70;;;7.50;;
57333;SDS011;43165;50.998;18.164;2022-08-19T07:53:40;14.90;;;7.40;;
57333;SDS011;43165;50.998;18.164;2022-08-19T07:56:06;13.80;;;7.90;;
57333;SDS011;43165;50.998;18.164;2022-08-19T07:58:33;11.50;;;8.10;;
57333;SDS011;43165;50.998;18.164;2022-08-19T08:01:01;12.00;;;8.00;;
57333;SDS011;43165;50.998;18.164;2022-08-19T08:03:28;13.90;;;8.40;;
57333;SDS011;43165;50.998;18.164;2022-08-19T08:06:13;8.90;;;8.00;;
57333;SDS011;43165;50.998;18.164;2022-08-19T08:08:58;15.10;;;8.20;;
57333;SDS011;43165;50.998;18.164;2022-08-19T08:11:37;17.90;;;8.00;;
57333;SDS011;43165;50.998;18.164;2022-08-19T08:14:14;15.00;;;8.40;;
57333;SDS011;43165;50.998;18.164;2022-08-19T08:17:01;15.30;;;8.10;;
57333;SDS011;43165;50.998;18.164;2022-08-19T08:19:27;10.40;;;8.00;;
57333;SDS011;43165;50.998;18.164;2022-08-19T08:21:54;10.10;;;8.00;;
57333;SDS011;43165;50.998;18.164;2022-08-19T08:24:21;14.70;;;7.90;;
57333;SDS011;43165;50.998;18.164;2022-08-19T08:26:47;19.50;;;8.10;;
57333;SDS011;43165;50.998;18.164;2022-08-19T08:29:13;14.80;;;8.10;;
57333;SDS011;43165;50.998;18.164;2022-08-19T08:31:41;20.20;;;8.60;;
57333;SDS011;43165;50.998;18.164;2022-08-19T08:34:08;16.40;;;8.80;;
57333;SDS011;43165;50.998;18.164;2022-08-19T08:36:37;10.60;;;7.40;;
57333;SDS011;43165;50.998;18.164;2022-08-19T08:39:11;16.60;;;8.10;;
57333;SDS011;43165;50.998;18.164;2022-08-19T08:41:53;14.00;;;7.80;;
57333;SDS011;43165;50.998;18.164;2022-08-19T08:44:32;16.70;;;8.00;;
57333;SDS011;43165;50.998;18.164;2022-08-19T08:47:13;13.40;;;8.20;;
57333;SDS011;43165;50.998;18.164;2022-08-19T08:49:44;15.00;;;7.70;;
57333;SDS011;43165;50.998;18.164;2022-08-19T08:52:21;11.80;;;8.00;;
57333;SDS011;43165;50.998;18.164;2022-08-19T08:54:52;8.90;;;7.10;;
57333;SDS011;43165;50.998;18.164;2022-08-19T08:57:26;18.40;;;7.50;;
57333;SDS011;43165;50.998;18.164;2022-08-19T09:00:23;12.00;;;7.80;;
57333;SDS011;43165;50.998;18.164;2022-08-19T09:02:53;12.20;;;7.50;;
57333;SDS011;43165;50.998;18.164;2022-08-19T09:05:20;10.80;;;6.90;;
57333;SDS011;43165;50.998;18.164;2022-08-19T09:08:04;19.30;;;7.50;;
57333;SDS011;43165;50.998;18.164;2022-08-19T09:10:36;13.80;;;7.00;;
57333;SDS011;43165;50.998;18.164;2022-08-19T09:15:55;15.60;;;6.70;;
57333;SDS011;43165;50.998;18.164;2022-08-19T09:18:24;11.60;;;6.80;;
57333;SDS011;43165;50.998;18.164;2022-08-19T09:20:49;14.70;;;6.70;;
57333;SDS011;43165;50.998;18.164;2022-08-19T09:23:15;14.10;;;6.70;;
57333;SDS011;43165;50.998;18.164;2022-08-19T09:25:40;17.10;;;6.20;;
57333;SDS011;43165;50.998;18.164;2022-08-19T09:28:06;15.30;;;6.80;;
57333;SDS011;43165;50.998;18.164;2022-08-19T09:30:33;52.10;;;8.00;;
57333;SDS011;43165;50.998;18.164;2022-08-19T09:33:03;11.90;;;6.10;;
57333;SDS011;43165;50.998;18.164;2022-08-19T09:35:29;15.00;;;6.00;;
57333;SDS011;43165;50.998;18.164;2022-08-19T09:37:55;20.90;;;6.30;;
57333;SDS011;43165;50.998;18.164;2022-08-19T09:40:22;20.20;;;6.50;;
57333;SDS011;43165;50.998;18.164;2022-08-19T09:42:47;26.30;;;6.50;;
57333;SDS011;43165;50.998;18.164;2022-08-19T09:45:14;13.20;;;5.90;;
57333;SDS011;43165;50.998;18.164;2022-08-19T09:47:40;13.60;;;5.80;;
57333;SDS011;43165;50.998;18.164;2022-08-19T09:50:06;19.80;;;6.20;;
57333;SDS011;43165;50.998;18.164;2022-08-19T09:52:34;15.80;;;6.30;;
57333;SDS011;43165;50.998;18.164;2022-08-19T09:55:05;28.10;;;11.00;;
57333;SDS011;43165;50.998;18.164;2022-08-19T09:57:32;23.80;;;10.20;;
57333;SDS011;43165;50.998;18.164;2022-08-19T09:59:57;59.50;;;10.60;;
57333;SDS011;43165;50.998;18.164;2022-08-19T10:02:23;16.30;;;6.30;;
57333;SDS011;43165;50.998;18.164;2022-08-19T10:04:50;13.80;;;6.20;;
57333;SDS011;43165;50.998;18.164;2022-08-19T10:07:35;17.10;;;6.50;;
57333;SDS011;43165;50.998;18.164;2022-08-19T10:10:05;12.90;;;7.10;;
57333;SDS011;43165;50.998;18.164;2022-08-19T10:12:33;14.60;;;6.00;;
57333;SDS011;43165;50.998;18.164;2022-08-19T10:14:59;16.90;;;6.00;;
57333;SDS011;43165;50.998;18.164;2022-08-19T10:17:25;18.40;;;6.10;;
57333;SDS011;43165;50.998;18.164;2022-08-19T10:19:52;13.70;;;6.00;;
57333;SDS011;43165;50.998;18.164;2022-08-19T10:22:18;25.70;;;6.30;;
57333;SDS011;43165;50.998;18.164;2022-08-19T10:24:45;21.00;;;6.60;;
57333;SDS011;43165;50.998;18.164;2022-08-19T10:27:11;16.90;;;6.40;;
57333;SDS011;43165;50.998;18.164;2022-08-19T10:29:38;17.50;;;5.70;;
57333;SDS011;43165;50.998;18.164;2022-08-19T10:32:05;13.60;;;5.60;;
57333;SDS011;43165;50.998;18.164;2022-08-19T10:34:32;12.60;;;5.60;;
57333;SDS011;43165;50.998;18.164;2022-08-19T10:36:58;15.60;;;4.80;;
57333;SDS011;43165;50.998;18.164;2022-08-19T10:39:25;17.50;;;5.20;;
57333;SDS011;43165;50.998;18.164;2022-08-19T10:41:55;17.40;;;5.60;;
57333;SDS011;43165;50.998;18.164;2022-08-19T10:44:21;21.30;;;5.90;;
57333;SDS011;43165;50.998;18.164;2022-08-19T10:46:48;27.00;;;6.10;;
57333;SDS011;43165;50.998;18.164;2022-08-19T10:49:14;44.00;;;7.20;;
57333;SDS011;43165;50.998;18.164;2022-08-19T10:51:40;11.00;;;5.40;;
57333;SDS011;43165;50.998;18.164;2022-08-19T10:54:24;16.50;;;5.50;;
57333;SDS011;43165;50.998;18.164;2022-08-19T10:57:10;14.20;;;5.60;;
57333;SDS011;43165;50.998;18.164;2022-08-19T10:59:36;15.00;;;5.60;;
57333;SDS011;43165;50.998;18.164;2022-08-19T11:02:02;11.50;;;5.80;;
57333;SDS011;43165;50.998;18.164;2022-08-19T11:04:29;16.40;;;6.30;;
57333;SDS011;43165;50.998;18.164;2022-08-19T11:06:55;13.90;;;5.80;;
57333;SDS011;43165;50.998;18.164;2022-08-19T11:09:22;15.20;;;6.90;;
57333;SDS011;43165;50.998;18.164;2022-08-19T11:14:21;15.70;;;7.00;;
57333;SDS011;43165;50.998;18.164;2022-08-19T11:16:50;18.80;;;6.90;;
57333;SDS011;43165;50.998;18.164;2022-08-19T11:19:17;16.10;;;7.10;;
57333;SDS011;43165;50.998;18.164;2022-08-19T11:21:45;9.80;;;7.00;;
57333;SDS011;43165;50.998;18.164;2022-08-19T11:24:14;21.20;;;7.60;;
57333;SDS011;43165;50.998;18.164;2022-08-19T11:26:42;27.80;;;7.70;;
57333;SDS011;43165;50.998;18.164;2022-08-19T11:29:09;14.70;;;7.00;;
57333;SDS011;43165;50.998;18.164;2022-08-19T11:31:36;16.70;;;7.30;;
57333;SDS011;43165;50.998;18.164;2022-08-19T11:34:05;17.90;;;7.10;;
57333;SDS011;43165;50.998;18.164;2022-08-19T11:36:32;18.40;;;6.90;;
57333;SDS011;43165;50.998;18.164;2022-08-19T11:38:59;22.60;;;7.00;;
57333;SDS011;43165;50.998;18.164;2022-08-19T11:41:26;13.80;;;6.40;;
57333;SDS011;43165;50.998;18.164;2022-08-19T11:43:52;25.90;;;7.40;;
57333;SDS011;43165;50.998;18.164;2022-08-19T11:46:20;20.10;;;7.20;;
57333;SDS011;43165;50.998;18.164;2022-08-19T11:48:46;13.90;;;6.30;;
57333;SDS011;43165;50.998;18.164;2022-08-19T11:51:15;16.30;;;6.40;;
57333;SDS011;43165;50.998;18.164;2022-08-19T11:53:46;17.70;;;6.50;;
57333;SDS011;43165;50.998;18.164;2022-08-19T11:56:12;15.60;;;7.10;;
57333;SDS011;43165;50.998;18.164;2022-08-19T11:58:38;16.50;;;6.80;;
57333;SDS011;43165;50.998;18.164;2022-08-19T12:01:05;17.40;;;7.00;;
57333;SDS011;43165;50.998;18.164;2022-08-19T12:03:32;15.00;;;7.30;;
57333;SDS011;43165;50.998;18.164;2022-08-19T12:06:02;17.40;;;7.00;;
57333;SDS011;43165;50.998;18.164;2022-08-19T12:08:29;20.00;;;7.50;;
57333;SDS011;43165;50.998;18.164;2022-08-19T12:10:55;21.90;;;8.00;;
57333;SDS011;43165;50.998;18.164;2022-08-19T12:13:21;21.70;;;7.30;;
57333;SDS011;43165;50.998;18.164;2022-08-19T12:15:47;23.30;;;8.10;;
57333;SDS011;43165;50.998;18.164;2022-08-19T12:18:13;16.80;;;7.30;;
57333;SDS011;43165;50.998;18.164;2022-08-19T12:20:40;19.10;;;7.40;;
57333;SDS011;43165;50.998;18.164;2022-08-19T12:23:09;24.40;;;8.00;;
57333;SDS011;43165;50.998;18.164;2022-08-19T12:25:36;15.50;;;7.40;;
57333;SDS011;43165;50.998;18.164;2022-08-19T12:28:02;19.20;;;7.10;;
57333;SDS011;43165;50.998;18.164;2022-08-19T12:30:28;50.70;;;8.40;;
57333;SDS011;43165;50.998;18.164;2022-08-19T12:32:53;15.70;;;7.10;;
57333;SDS011;43165;50.998;18.164;2022-08-19T12:35:19;14.50;;;7.20;;
57333;SDS011;43165;50.998;18.164;2022-08-19T12:37:46;13.20;;;6.80;;
57333;SDS011;43165;50.998;18.164;2022-08-19T12:40:13;16.10;;;6.80;;
57333;SDS011;43165;50.998;18.164;2022-08-19T12:42:40;18.90;;;7.40;;
57333;SDS011;43165;50.998;18.164;2022-08-19T12:45:11;13.80;;;7.30;;
57333;SDS011;43165;50.998;18.164;2022-08-19T12:47:37;13.60;;;7.30;;
57333;SDS011;43165;50.998;18.164;2022-08-19T12:50:04;17.90;;;7.70;;
57333;SDS011;43165;50.998;18.164;2022-08-19T12:52:31;15.60;;;8.00;;
57333;SDS011;43165;50.998;18.164;2022-08-19T12:54:57;18.90;;;7.60;;
57333;SDS011;43165;50.998;18.164;2022-08-19T12:57:23;25.40;;;7.90;;
57333;SDS011;43165;50.998;18.164;2022-08-19T12:59:53;14.10;;;7.30;;
57333;SDS011;43165;50.998;18.164;2022-08-19T13:02:19;22.90;;;7.50;;
57333;SDS011;43165;50.998;18.164;2022-08-19T13:04:46;15.50;;;7.10;;
57333;SDS011;43165;50.998;18.164;2022-08-19T13:07:11;15.40;;;7.40;;
57333;SDS011;43165;50.998;18.164;2022-08-19T13:09:37;14.50;;;7.20;;
57333;SDS011;43165;50.998;18.164;2022-08-19T13:12:03;11.90;;;6.80;;
57333;SDS011;43165;50.998;18.164;2022-08-19T13:14:33;12.90;;;7.10;;
57333;SDS011;43165;50.998;18.164;2022-08-19T13:16:59;11.90;;;7.10;;
57333;SDS011;43165;50.998;18.164;2022-08-19T13:19:25;11.50;;;7.00;;
57333;SDS011;43165;50.998;18.164;2022-08-19T13:21:51;17.50;;;7.20;;
57333;SDS011;43165;50.998;18.164;2022-08-19T13:24:19;18.60;;;7.60;;
57333;SDS011;43165;50.998;18.164;2022-08-19T13:26:44;16.60;;;7.10;;
57333;SDS011;43165;50.998;18.164;2022-08-19T13:29:09;12.90;;;6.90;;
57333;SDS011;43165;50.998;18.164;2022-08-19T13:31:54;20.70;;;7.30;;
57333;SDS011;43165;50.998;18.164;2022-08-19T13:34:38;17.40;;;7.50;;
57333;SDS011;43165;50.998;18.164;2022-08-19T13:37:04;17.70;;;7.40;;
57333;SDS011;43165;50.998;18.164;2022-08-19T13:39:30;18.30;;;7.80;;
57333;SDS011;43165;50.998;18.164;2022-08-19T13:41:57;18.60;;;7.20;;
57333;SDS011;43165;50.998;18.164;2022-08-19T13:44:23;14.70;;;7.40;;
57333;SDS011;43165;50.998;18.164;2022-08-19T13:46:49;15.30;;;7.30;;
57333;SDS011;43165;50.998;18.164;2022-08-19T13:49:17;13.40;;;6.70;;
57333;SDS011;43165;50.998;18.164;2022-08-19T13:51:43;13.60;;;6.50;;
57333;SDS011;43165;50.998;18.164;2022-08-19T13:54:10;30.30;;;7.40;;
57333;SDS011;43165;50.998;18.164;2022-08-19T13:56:41;10.80;;;6.10;;
57333;SDS011;43165;50.998;18.164;2022-08-19T13:59:08;10.60;;;6.30;;
57333;SDS011;43165;50.998;18.164;2022-08-19T14:01:33;16.30;;;6.80;;
57333;SDS011;43165;50.998;18.164;2022-08-19T14:04:00;18.00;;;6.90;;
57333;SDS011;43165;50.998;18.164;2022-08-19T14:06:26;15.50;;;7.00;;
57333;SDS011;43165;50.998;18.164;2022-08-19T14:08:52;11.10;;;6.60;;
57333;SDS011;43165;50.998;18.164;2022-08-19T14:11:18;14.90;;;7.00;;
57333;SDS011;43165;50.998;18.164;2022-08-19T14:13:44;21.00;;;6.50;;
57333;SDS011;43165;50.998;18.164;2022-08-19T14:16:10;18.50;;;6.80;;
57333;SDS011;43165;50.998;18.164;2022-08-19T14:18:37;18.00;;;6.40;;
57333;SDS011;43165;50.998;18.164;2022-08-19T14:21:03;14.50;;;6.50;;
57333;SDS011;43165;50.998;18.164;2022-08-19T14:23:30;20.10;;;6.30;;
57333;SDS011;43165;50.998;18.164;2022-08-19T14:26:07;14.50;;;6.40;;
57333;SDS011;43165;50.998;18.164;2022-08-19T14:28:34;14.40;;;6.90;;